sensor_id;sensor_type;location;lat;lon;timestamp;P1;durP1;ratioP1;P2;durP2;ratioP2
70414;SDS011;57837;52.064;113.478;2023-04-24T00:02:27;6.28;;;2.20;;
70414;SDS011;57837;52.064;113.478;2023-04-24T00:05:32;8.05;;;1.83;;
70414;SDS011;57837;52.064;113.478;2023-04-24T00:08:36;4.25;;;1.77;;
70414;SDS011;57837;52.064;113.478;2023-04-24T00:11:40;7.77;;;1.83;;
70414;SDS011;57837;52.064;113.478;2023-04-24T00:14:44;3.22;;;1.80;;
70414;SDS011;57837;52.064;113.478;2023-04-24T00:17:48;9.75;;;2.40;;
70414;SDS011;57837;52.064;113.478;2023-04-24T00:20:52;8.73;;;2.50;;
70414;SDS011;57837;52.064;113.478;2023-04-24T00:23:56;4.55;;;2.05;;
70414;SDS011;57837;52.064;113.478;2023-04-24T00:26:59;10.20;;;2.30;;
70414;SDS011;57837;52.064;113.478;2023-04-24T00:30:04;6.30;;;2.15;;
70414;SDS011;57837;52.064;113.478;2023-04-24T00:33:08;12.10;;;2.45;;
70414;SDS011;57837;52.064;113.478;2023-04-24T00:36:13;18.85;;;2.45;;
70414;SDS011;57837;52.064;113.478;2023-04-24T00:39:20;4.25;;;1.60;;
70414;SDS011;57837;52.064;113.478;2023-04-24T00:42:24;4.83;;;1.83;;
70414;SDS011;57837;52.064;113.478;2023-04-24T00:45:28;13.45;;;2.88;;
70414;SDS011;57837;52.064;113.478;2023-04-24T00:48:34;5.00;;;2.03;;
70414;SDS011;57837;52.064;113.478;2023-04-24T00:51:38;16.15;;;2.13;;
70414;SDS011;57837;52.064;113.478;2023-04-24T00:54:44;3.75;;;1.50;;
70414;SDS011;57837;52.064;113.478;2023-04-24T00:57:50;3.60;;;1.60;;
70414;SDS011;57837;52.064;113.478;2023-04-24T01:00:54;3.08;;;1.75;;
70414;SDS011;57837;52.064;113.478;2023-04-24T01:04:00;7.93;;;2.22;;
70414;SDS011;57837;52.064;113.478;2023-04-24T01:07:04;6.25;;;2.85;;
70414;SDS011;57837;52.064;113.478;2023-04-24T01:10:13;8.30;;;1.45;;
70414;SDS011;57837;52.064;113.478;2023-04-24T01:13:19;9.00;;;1.67;;
70414;SDS011;57837;52.064;113.478;2023-04-24T01:16:23;87.82;;;5.88;;
70414;SDS011;57837;52.064;113.478;2023-04-24T01:19:28;14.35;;;2.42;;
70414;SDS011;57837;52.064;113.478;2023-04-24T01:22:33;7.00;;;1.60;;
70414;SDS011;57837;52.064;113.478;2023-04-24T01:25:37;5.32;;;2.45;;
70414;SDS011;57837;52.064;113.478;2023-04-24T01:28:42;7.40;;;2.30;;
70414;SDS011;57837;52.064;113.478;2023-04-24T01:31:46;3.00;;;1.60;;
70414;SDS011;57837;52.064;113.478;2023-04-24T01:34:50;5.88;;;1.88;;
70414;SDS011;57837;52.064;113.478;2023-04-24T01:37:54;4.35;;;2.10;;
70414;SDS011;57837;52.064;113.478;2023-04-24T01:40:58;5.07;;;1.83;;
70414;SDS011;57837;52.064;113.478;2023-04-24T01:44:02;5.73;;;2.00;;
70414;SDS011;57837;52.064;113.478;2023-04-24T01:47:07;7.18;;;1.60;;
70414;SDS011;57837;52.064;113.478;2023-04-24T01:50:10;2.97;;;1.33;;
70414;SDS011;57837;52.064;113.478;2023-04-24T01:53:15;4.47;;;1.80;;
70414;SDS011;57837;52.064;113.478;2023-04-24T01:56:19;7.63;;;3.07;;
70414;SDS011;57837;52.064;113.478;2023-04-24T01:59:25;5.90;;;2.57;;
70414;SDS011;57837;52.064;113.478;2023-04-24T02:02:30;19.00;;;6.40;;
70414;SDS011;57837;52.064;113.478;2023-04-24T02:05:35;13.85;;;2.85;;
70414;SDS011;57837;52.064;113.478;2023-04-24T02:08:38;4.47;;;1.60;;
70414;SDS011;57837;52.064;113.478;2023-04-24T02:11:42;3.07;;;1.63;;
70414;SDS011;57837;52.064;113.478;2023-04-24T02:14:46;10.07;;;2.30;;
70414;SDS011;57837;52.064;113.478;2023-04-24T02:17:50;4.13;;;2.58;;
70414;SDS011;57837;52.064;113.478;2023-04-24T02:20:53;17.70;;;3.13;;
70414;SDS011;57837;52.064;113.478;2023-04-24T02:23:58;2.35;;;1.38;;
70414;SDS011;57837;52.064;113.478;2023-04-24T02:27:01;4.47;;;1.67;;
70414;SDS011;57837;52.064;113.478;2023-04-24T02:30:06;5.00;;;1.90;;
70414;SDS011;57837;52.064;113.478;2023-04-24T02:33:11;5.25;;;2.00;;
70414;SDS011;57837;52.064;113.478;2023-04-24T02:36:15;5.95;;;1.85;;
70414;SDS011;57837;52.064;113.478;2023-04-24T02:39:18;7.55;;;1.77;;
70414;SDS011;57837;52.064;113.478;2023-04-24T02:42:22;10.07;;;1.80;;
70414;SDS011;57837;52.064;113.478;2023-04-24T02:45:26;6.87;;;2.40;;
70414;SDS011;57837;52.064;113.478;2023-04-24T02:48:30;6.32;;;2.00;;
70414;SDS011;57837;52.064;113.478;2023-04-24T02:51:34;2.67;;;1.35;;
70414;SDS011;57837;52.064;113.478;2023-04-24T02:54:41;6.45;;;2.38;;
70414;SDS011;57837;52.064;113.478;2023-04-24T02:57:45;11.50;;;2.33;;
70414;SDS011;57837;52.064;113.478;2023-04-24T03:00:52;3.27;;;1.20;;
70414;SDS011;57837;52.064;113.478;2023-04-24T03:03:57;7.38;;;2.13;;
70414;SDS011;57837;52.064;113.478;2023-04-24T03:07:01;33.08;;;3.08;;
70414;SDS011;57837;52.064;113.478;2023-04-24T03:10:05;7.15;;;2.60;;
70414;SDS011;57837;52.064;113.478;2023-04-24T03:13:09;16.27;;;2.30;;
70414;SDS011;57837;52.064;113.478;2023-04-24T03:16:12;22.70;;;2.50;;
70414;SDS011;57837;52.064;113.478;2023-04-24T03:19:16;6.82;;;1.80;;
70414;SDS011;57837;52.064;113.478;2023-04-24T03:22:32;8.90;;;2.08;;
70414;SDS011;57837;52.064;113.478;2023-04-24T03:25:40;6.35;;;2.20;;
70414;SDS011;57837;52.064;113.478;2023-04-24T03:28:47;3.87;;;1.20;;
70414;SDS011;57837;52.064;113.478;2023-04-24T03:31:51;4.50;;;1.50;;
70414;SDS011;57837;52.064;113.478;2023-04-24T03:34:55;6.35;;;2.03;;
70414;SDS011;57837;52.064;113.478;2023-04-24T03:37:59;8.27;;;2.25;;
70414;SDS011;57837;52.064;113.478;2023-04-24T03:41:12;16.42;;;2.53;;
70414;SDS011;57837;52.064;113.478;2023-04-24T03:44:23;7.50;;;2.53;;
70414;SDS011;57837;52.064;113.478;2023-04-24T03:47:26;3.53;;;1.87;;
70414;SDS011;57837;52.064;113.478;2023-04-24T03:50:33;4.60;;;1.75;;
70414;SDS011;57837;52.064;113.478;2023-04-24T03:53:38;9.93;;;2.25;;
70414;SDS011;57837;52.064;113.478;2023-04-24T03:56:44;33.00;;;3.75;;
70414;SDS011;57837;52.064;113.478;2023-04-24T03:59:49;5.97;;;2.10;;
70414;SDS011;57837;52.064;113.478;2023-04-24T04:02:53;23.00;;;2.87;;
70414;SDS011;57837;52.064;113.478;2023-04-24T04:05:57;25.15;;;3.58;;
70414;SDS011;57837;52.064;113.478;2023-04-24T04:09:02;5.20;;;1.63;;
70414;SDS011;57837;52.064;113.478;2023-04-24T04:12:06;1.70;;;1.20;;
70414;SDS011;57837;52.064;113.478;2023-04-24T04:15:12;8.53;;;2.07;;
70414;SDS011;57837;52.064;113.478;2023-04-24T04:18:16;8.37;;;2.47;;
70414;SDS011;57837;52.064;113.478;2023-04-24T04:21:20;6.78;;;1.95;;
70414;SDS011;57837;52.064;113.478;2023-04-24T04:24:29;5.10;;;2.10;;
70414;SDS011;57837;52.064;113.478;2023-04-24T04:27:34;4.43;;;1.55;;
70414;SDS011;57837;52.064;113.478;2023-04-24T04:30:43;8.27;;;2.57;;
70414;SDS011;57837;52.064;113.478;2023-04-24T04:33:48;8.90;;;2.10;;
70414;SDS011;57837;52.064;113.478;2023-04-24T04:36:52;5.18;;;1.70;;
70414;SDS011;57837;52.064;113.478;2023-04-24T04:40:14;7.07;;;1.40;;
70414;SDS011;57837;52.064;113.478;2023-04-24T04:43:28;7.65;;;1.67;;
70414;SDS011;57837;52.064;113.478;2023-04-24T04:46:34;12.03;;;2.10;;
70414;SDS011;57837;52.064;113.478;2023-04-24T04:49:47;5.00;;;1.67;;
70414;SDS011;57837;52.064;113.478;2023-04-24T04:52:55;8.63;;;1.63;;
70414;SDS011;57837;52.064;113.478;2023-04-24T04:56:05;3.35;;;1.30;;
70414;SDS011;57837;52.064;113.478;2023-04-24T04:59:14;6.05;;;2.25;;
70414;SDS011;57837;52.064;113.478;2023-04-24T05:02:18;12.30;;;2.20;;
70414;SDS011;57837;52.064;113.478;2023-04-24T05:05:22;17.23;;;2.27;;
70414;SDS011;57837;52.064;113.478;2023-04-24T05:08:26;5.65;;;1.40;;
70414;SDS011;57837;52.064;113.478;2023-04-24T05:11:30;11.55;;;2.30;;
70414;SDS011;57837;52.064;113.478;2023-04-24T05:14:35;6.07;;;2.00;;
70414;SDS011;57837;52.064;113.478;2023-04-24T05:17:40;8.83;;;2.47;;
70414;SDS011;57837;52.064;113.478;2023-04-24T05:20:45;5.53;;;2.13;;
70414;SDS011;57837;52.064;113.478;2023-04-24T05:23:49;27.95;;;2.97;;
70414;SDS011;57837;52.064;113.478;2023-04-24T05:27:06;5.78;;;1.60;;
70414;SDS011;57837;52.064;113.478;2023-04-24T05:30:13;4.90;;;1.40;;
70414;SDS011;57837;52.064;113.478;2023-04-24T05:33:17;2.07;;;1.37;;
70414;SDS011;57837;52.064;113.478;2023-04-24T05:36:21;3.13;;;1.70;;
70414;SDS011;57837;52.064;113.478;2023-04-24T05:39:25;8.45;;;1.70;;
70414;SDS011;57837;52.064;113.478;2023-04-24T05:42:29;9.80;;;2.22;;
70414;SDS011;57837;52.064;113.478;2023-04-24T05:45:33;12.88;;;2.00;;
70414;SDS011;57837;52.064;113.478;2023-04-24T05:48:38;11.67;;;1.63;;
70414;SDS011;57837;52.064;113.478;2023-04-24T05:51:43;6.27;;;1.77;;
70414;SDS011;57837;52.064;113.478;2023-04-24T05:54:47;4.15;;;1.38;;
70414;SDS011;57837;52.064;113.478;2023-04-24T05:57:55;3.58;;;1.45;;
70414;SDS011;57837;52.064;113.478;2023-04-24T06:01:00;16.35;;;2.15;;
70414;SDS011;57837;52.064;113.478;2023-04-24T06:04:05;5.80;;;2.10;;
70414;SDS011;57837;52.064;113.478;2023-04-24T06:07:12;14.43;;;2.37;;
70414;SDS011;57837;52.064;113.478;2023-04-24T06:10:17;3.47;;;1.50;;
70414;SDS011;57837;52.064;113.478;2023-04-24T06:13:21;4.22;;;1.63;;
70414;SDS011;57837;52.064;113.478;2023-04-24T06:16:45;7.38;;;1.60;;
70414;SDS011;57837;52.064;113.478;2023-04-24T06:20:06;8.87;;;1.67;;
70414;SDS011;57837;52.064;113.478;2023-04-24T06:23:11;6.53;;;1.40;;
70414;SDS011;57837;52.064;113.478;2023-04-24T06:26:15;6.28;;;1.77;;
70414;SDS011;57837;52.064;113.478;2023-04-24T06:29:19;10.38;;;2.42;;
70414;SDS011;57837;52.064;113.478;2023-04-24T06:32:24;8.93;;;2.55;;
70414;SDS011;57837;52.064;113.478;2023-04-24T06:35:28;11.57;;;2.10;;
70414;SDS011;57837;52.064;113.478;2023-04-24T06:38:32;4.00;;;1.60;;
70414;SDS011;57837;52.064;113.478;2023-04-24T06:41:37;4.28;;;1.60;;
70414;SDS011;57837;52.064;113.478;2023-04-24T06:44:43;3.72;;;1.60;;
70414;SDS011;57837;52.064;113.478;2023-04-24T06:47:48;2.60;;;1.42;;
70414;SDS011;57837;52.064;113.478;2023-04-24T06:50:52;9.43;;;2.00;;
70414;SDS011;57837;52.064;113.478;2023-04-24T06:53:56;4.43;;;1.70;;
70414;SDS011;57837;52.064;113.478;2023-04-24T06:56:59;10.20;;;2.60;;
70414;SDS011;57837;52.064;113.478;2023-04-24T07:00:06;8.20;;;1.75;;
70414;SDS011;57837;52.064;113.478;2023-04-24T07:03:12;3.33;;;1.13;;
70414;SDS011;57837;52.064;113.478;2023-04-24T07:06:17;4.30;;;1.37;;
70414;SDS011;57837;52.064;113.478;2023-04-24T07:09:22;5.87;;;1.97;;
70414;SDS011;57837;52.064;113.478;2023-04-24T07:12:26;14.18;;;2.00;;
70414;SDS011;57837;52.064;113.478;2023-04-24T07:15:30;7.82;;;1.77;;
70414;SDS011;57837;52.064;113.478;2023-04-24T07:18:35;6.90;;;2.10;;
70414;SDS011;57837;52.064;113.478;2023-04-24T07:21:40;9.63;;;1.27;;
70414;SDS011;57837;52.064;113.478;2023-04-24T07:24:44;3.40;;;1.30;;
70414;SDS011;57837;52.064;113.478;2023-04-24T07:27:48;4.78;;;1.67;;
70414;SDS011;57837;52.064;113.478;2023-04-24T07:30:52;21.33;;;2.40;;
70414;SDS011;57837;52.064;113.478;2023-04-24T07:33:57;9.40;;;1.90;;
70414;SDS011;57837;52.064;113.478;2023-04-24T07:37:01;8.40;;;4.00;;
70414;SDS011;57837;52.064;113.478;2023-04-24T07:40:05;7.07;;;2.90;;
70414;SDS011;57837;52.064;113.478;2023-04-24T07:43:09;6.05;;;2.28;;
70414;SDS011;57837;52.064;113.478;2023-04-24T07:46:13;8.00;;;1.80;;
70414;SDS011;57837;52.064;113.478;2023-04-24T07:49:18;7.20;;;1.65;;
70414;SDS011;57837;52.064;113.478;2023-04-24T07:52:23;8.50;;;1.67;;
70414;SDS011;57837;52.064;113.478;2023-04-24T07:55:27;8.23;;;1.50;;
70414;SDS011;57837;52.064;113.478;2023-04-24T07:58:30;7.93;;;3.15;;
70414;SDS011;57837;52.064;113.478;2023-04-24T08:01:34;2.95;;;1.58;;
70414;SDS011;57837;52.064;113.478;2023-04-24T08:04:37;6.13;;;1.70;;
70414;SDS011;57837;52.064;113.478;2023-04-24T08:07:42;14.67;;;3.30;;
70414;SDS011;57837;52.064;113.478;2023-04-24T08:10:46;11.17;;;2.43;;
70414;SDS011;57837;52.064;113.478;2023-04-24T08:13:50;7.03;;;1.77;;
70414;SDS011;57837;52.064;113.478;2023-04-24T08:16:54;7.93;;;2.03;;
70414;SDS011;57837;52.064;113.478;2023-04-24T08:19:59;6.47;;;2.35;;
70414;SDS011;57837;52.064;113.478;2023-04-24T08:23:03;4.83;;;1.50;;
70414;SDS011;57837;52.064;113.478;2023-04-24T08:26:07;5.33;;;1.60;;
70414;SDS011;57837;52.064;113.478;2023-04-24T08:29:11;6.05;;;1.75;;
70414;SDS011;57837;52.064;113.478;2023-04-24T08:32:15;5.10;;;1.60;;
70414;SDS011;57837;52.064;113.478;2023-04-24T08:35:19;4.93;;;2.00;;
70414;SDS011;57837;52.064;113.478;2023-04-24T08:38:23;10.70;;;1.93;;
70414;SDS011;57837;52.064;113.478;2023-04-24T08:41:27;6.23;;;1.33;;
70414;SDS011;57837;52.064;113.478;2023-04-24T08:44:32;12.30;;;2.25;;
70414;SDS011;57837;52.064;113.478;2023-04-24T08:47:36;9.30;;;2.40;;
70414;SDS011;57837;52.064;113.478;2023-04-24T08:50:42;7.30;;;2.10;;
70414;SDS011;57837;52.064;113.478;2023-04-24T08:53:48;6.93;;;1.50;;
70414;SDS011;57837;52.064;113.478;2023-04-24T08:56:53;4.97;;;1.60;;
70414;SDS011;57837;52.064;113.478;2023-04-24T09:00:00;3.75;;;1.30;;
70414;SDS011;57837;52.064;113.478;2023-04-24T09:03:06;3.65;;;1.60;;
70414;SDS011;57837;52.064;113.478;2023-04-24T09:06:10;4.43;;;1.73;;
70414;SDS011;57837;52.064;113.478;2023-04-24T09:09:14;16.80;;;2.53;;
70414;SDS011;57837;52.064;113.478;2023-04-24T09:12:21;3.00;;;1.47;;
70414;SDS011;57837;52.064;113.478;2023-04-24T09:15:25;4.45;;;2.00;;
70414;SDS011;57837;52.064;113.478;2023-04-24T09:18:30;5.88;;;1.80;;
70414;SDS011;57837;52.064;113.478;2023-04-24T09:21:34;19.13;;;3.13;;
70414;SDS011;57837;52.064;113.478;2023-04-24T09:24:39;6.73;;;1.80;;
70414;SDS011;57837;52.064;113.478;2023-04-24T09:27:43;15.33;;;2.50;;
70414;SDS011;57837;52.064;113.478;2023-04-24T09:30:51;11.02;;;3.03;;
70414;SDS011;57837;52.064;113.478;2023-04-24T09:34:07;9.93;;;2.35;;
70414;SDS011;57837;52.064;113.478;2023-04-24T09:37:11;6.50;;;2.00;;
70414;SDS011;57837;52.064;113.478;2023-04-24T09:40:32;5.57;;;2.17;;
70414;SDS011;57837;52.064;113.478;2023-04-24T09:43:42;5.47;;;2.60;;
70414;SDS011;57837;52.064;113.478;2023-04-24T09:46:51;5.65;;;1.95;;
70414;SDS011;57837;52.064;113.478;2023-04-24T09:49:57;10.30;;;2.40;;
70414;SDS011;57837;52.064;113.478;2023-04-24T09:53:02;3.35;;;1.80;;
70414;SDS011;57837;52.064;113.478;2023-04-24T09:56:08;5.87;;;1.57;;
70414;SDS011;57837;52.064;113.478;2023-04-24T09:59:13;4.20;;;2.17;;
70414;SDS011;57837;52.064;113.478;2023-04-24T10:02:19;4.80;;;1.80;;
70414;SDS011;57837;52.064;113.478;2023-04-24T10:05:24;4.15;;;1.48;;
70414;SDS011;57837;52.064;113.478;2023-04-24T10:08:34;8.70;;;2.00;;
70414;SDS011;57837;52.064;113.478;2023-04-24T10:11:42;6.73;;;2.20;;
70414;SDS011;57837;52.064;113.478;2023-04-24T10:14:49;9.57;;;2.73;;
70414;SDS011;57837;52.064;113.478;2023-04-24T10:17:53;2.40;;;1.50;;
70414;SDS011;57837;52.064;113.478;2023-04-24T10:20:57;5.68;;;1.73;;
70414;SDS011;57837;52.064;113.478;2023-04-24T10:24:03;6.53;;;1.77;;
70414;SDS011;57837;52.064;113.478;2023-04-24T10:27:12;8.13;;;2.50;;
70414;SDS011;57837;52.064;113.478;2023-04-24T10:30:18;10.50;;;2.17;;
70414;SDS011;57837;52.064;113.478;2023-04-24T10:33:22;5.40;;;3.30;;
70414;SDS011;57837;52.064;113.478;2023-04-24T10:36:26;10.27;;;4.72;;
70414;SDS011;57837;52.064;113.478;2023-04-24T10:39:32;10.73;;;3.15;;
70414;SDS011;57837;52.064;113.478;2023-04-24T10:42:39;7.10;;;3.20;;
70414;SDS011;57837;52.064;113.478;2023-04-24T10:46:02;6.17;;;2.23;;
70414;SDS011;57837;52.064;113.478;2023-04-24T10:49:07;8.10;;;3.75;;
70414;SDS011;57837;52.064;113.478;2023-04-24T10:52:12;6.70;;;2.30;;
70414;SDS011;57837;52.064;113.478;2023-04-24T10:55:39;9.80;;;3.70;;
70414;SDS011;57837;52.064;113.478;2023-04-24T10:58:54;10.53;;;3.17;;
70414;SDS011;57837;52.064;113.478;2023-04-24T11:01:57;6.83;;;2.30;;
70414;SDS011;57837;52.064;113.478;2023-04-24T11:05:02;6.15;;;2.00;;
70414;SDS011;57837;52.064;113.478;2023-04-24T11:11:17;4.35;;;2.50;;
70414;SDS011;57837;52.064;113.478;2023-04-24T11:14:23;10.57;;;2.80;;
70414;SDS011;57837;52.064;113.478;2023-04-24T11:17:30;9.23;;;3.17;;
70414;SDS011;57837;52.064;113.478;2023-04-24T11:20:36;11.90;;;3.00;;
70414;SDS011;57837;52.064;113.478;2023-04-24T11:23:45;12.35;;;3.92;;
70414;SDS011;57837;52.064;113.478;2023-04-24T11:27:12;10.10;;;4.07;;
70414;SDS011;57837;52.064;113.478;2023-04-24T11:30:19;10.97;;;4.27;;
70414;SDS011;57837;52.064;113.478;2023-04-24T11:33:22;16.40;;;5.70;;
70414;SDS011;57837;52.064;113.478;2023-04-24T11:36:26;12.88;;;5.50;;
70414;SDS011;57837;52.064;113.478;2023-04-24T11:39:29;16.70;;;6.10;;
70414;SDS011;57837;52.064;113.478;2023-04-24T11:42:42;17.40;;;6.60;;
70414;SDS011;57837;52.064;113.478;2023-04-24T11:45:50;14.10;;;5.97;;
70414;SDS011;57837;52.064;113.478;2023-04-24T11:48:53;10.47;;;5.20;;
70414;SDS011;57837;52.064;113.478;2023-04-24T11:51:57;12.63;;;4.55;;
70414;SDS011;57837;52.064;113.478;2023-04-24T11:55:03;20.08;;;7.65;;
70414;SDS011;57837;52.064;113.478;2023-04-24T11:58:06;25.83;;;10.15;;
70414;SDS011;57837;52.064;113.478;2023-04-24T12:01:10;32.00;;;12.47;;
70414;SDS011;57837;52.064;113.478;2023-04-24T12:04:15;18.53;;;8.13;;
70414;SDS011;57837;52.064;113.478;2023-04-24T12:07:21;15.50;;;6.25;;
70414;SDS011;57837;52.064;113.478;2023-04-24T12:10:28;16.02;;;5.72;;
70414;SDS011;57837;52.064;113.478;2023-04-24T12:13:33;12.65;;;6.28;;
70414;SDS011;57837;52.064;113.478;2023-04-24T12:17:02;22.37;;;8.63;;
70414;SDS011;57837;52.064;113.478;2023-04-24T12:20:06;13.67;;;6.00;;
70414;SDS011;57837;52.064;113.478;2023-04-24T12:23:13;17.60;;;6.93;;
70414;SDS011;57837;52.064;113.478;2023-04-24T12:26:18;14.65;;;5.55;;
70414;SDS011;57837;52.064;113.478;2023-04-24T12:29:23;15.98;;;5.78;;
70414;SDS011;57837;52.064;113.478;2023-04-24T12:32:27;31.33;;;12.37;;
70414;SDS011;57837;52.064;113.478;2023-04-24T12:35:32;27.58;;;9.45;;
70414;SDS011;57837;52.064;113.478;2023-04-24T12:38:36;67.25;;;26.35;;
70414;SDS011;57837;52.064;113.478;2023-04-24T12:42:03;125.20;;;49.28;;
70414;SDS011;57837;52.064;113.478;2023-04-24T12:45:07;126.78;;;51.72;;
70414;SDS011;57837;52.064;113.478;2023-04-24T12:48:10;119.90;;;50.97;;
70414;SDS011;57837;52.064;113.478;2023-04-24T12:51:14;103.00;;;44.03;;
70414;SDS011;57837;52.064;113.478;2023-04-24T12:54:17;97.95;;;40.90;;
70414;SDS011;57837;52.064;113.478;2023-04-24T12:57:20;89.50;;;35.88;;
70414;SDS011;57837;52.064;113.478;2023-04-24T13:00:25;77.57;;;31.42;;
70414;SDS011;57837;52.064;113.478;2023-04-24T13:03:29;72.63;;;29.97;;
70414;SDS011;57837;52.064;113.478;2023-04-24T13:06:32;57.50;;;26.65;;
70414;SDS011;57837;52.064;113.478;2023-04-24T13:09:36;65.57;;;27.05;;
70414;SDS011;57837;52.064;113.478;2023-04-24T13:12:40;77.05;;;30.50;;
70414;SDS011;57837;52.064;113.478;2023-04-24T13:15:43;100.07;;;38.70;;
70414;SDS011;57837;52.064;113.478;2023-04-24T13:18:47;108.90;;;39.53;;
70414;SDS011;57837;52.064;113.478;2023-04-24T13:21:50;105.10;;;39.08;;
70414;SDS011;57837;52.064;113.478;2023-04-24T13:24:54;147.10;;;50.00;;
70414;SDS011;57837;52.064;113.478;2023-04-24T13:27:59;151.65;;;50.15;;
70414;SDS011;57837;52.064;113.478;2023-04-24T13:31:02;146.23;;;51.13;;
70414;SDS011;57837;52.064;113.478;2023-04-24T13:34:06;105.70;;;41.33;;
70414;SDS011;57837;52.064;113.478;2023-04-24T13:37:09;65.55;;;28.33;;
70414;SDS011;57837;52.064;113.478;2023-04-24T13:40:13;59.38;;;24.50;;
70414;SDS011;57837;52.064;113.478;2023-04-24T13:43:17;44.33;;;17.92;;
70414;SDS011;57837;52.064;113.478;2023-04-24T13:46:20;36.30;;;15.25;;
70414;SDS011;57837;52.064;113.478;2023-04-24T13:49:24;31.10;;;13.60;;
70414;SDS011;57837;52.064;113.478;2023-04-24T13:52:29;30.25;;;11.38;;
70414;SDS011;57837;52.064;113.478;2023-04-24T13:55:33;31.15;;;10.95;;
70414;SDS011;57837;52.064;113.478;2023-04-24T13:58:37;33.17;;;11.38;;
70414;SDS011;57837;52.064;113.478;2023-04-24T14:01:41;29.90;;;10.18;;
70414;SDS011;57837;52.064;113.478;2023-04-24T14:04:44;32.53;;;10.70;;
70414;SDS011;57837;52.064;113.478;2023-04-24T14:07:49;23.02;;;9.30;;
70414;SDS011;57837;52.064;113.478;2023-04-24T14:10:53;24.40;;;8.88;;
70414;SDS011;57837;52.064;113.478;2023-04-24T14:13:57;16.65;;;7.07;;
70414;SDS011;57837;52.064;113.478;2023-04-24T14:17:00;22.17;;;7.32;;
70414;SDS011;57837;52.064;113.478;2023-04-24T14:20:04;32.90;;;12.80;;
70414;SDS011;57837;52.064;113.478;2023-04-24T14:23:09;13.27;;;5.78;;
70414;SDS011;57837;52.064;113.478;2023-04-24T14:26:13;19.42;;;6.55;;
70414;SDS011;57837;52.064;113.478;2023-04-24T14:29:16;8.60;;;4.35;;
70414;SDS011;57837;52.064;113.478;2023-04-24T14:32:20;10.52;;;4.70;;
70414;SDS011;57837;52.064;113.478;2023-04-24T14:35:23;8.07;;;4.30;;
70414;SDS011;57837;52.064;113.478;2023-04-24T14:38:27;8.35;;;3.80;;
70414;SDS011;57837;52.064;113.478;2023-04-24T14:41:31;23.40;;;6.50;;
70414;SDS011;57837;52.064;113.478;2023-04-24T14:44:36;23.50;;;9.68;;
70414;SDS011;57837;52.064;113.478;2023-04-24T14:47:40;18.33;;;7.45;;
70414;SDS011;57837;52.064;113.478;2023-04-24T14:50:44;37.53;;;13.43;;
70414;SDS011;57837;52.064;113.478;2023-04-24T14:53:48;33.83;;;13.85;;
70414;SDS011;57837;52.064;113.478;2023-04-24T14:56:52;42.42;;;14.85;;
70414;SDS011;57837;52.064;113.478;2023-04-24T14:59:59;41.20;;;16.73;;
70414;SDS011;57837;52.064;113.478;2023-04-24T15:03:03;37.33;;;15.95;;
70414;SDS011;57837;52.064;113.478;2023-04-24T15:06:07;33.23;;;13.67;;
70414;SDS011;57837;52.064;113.478;2023-04-24T15:09:11;37.65;;;14.45;;
70414;SDS011;57837;52.064;113.478;2023-04-24T15:12:14;31.58;;;15.23;;
70414;SDS011;57837;52.064;113.478;2023-04-24T15:15:18;42.55;;;16.58;;
70414;SDS011;57837;52.064;113.478;2023-04-24T15:18:22;40.72;;;16.27;;
70414;SDS011;57837;52.064;113.478;2023-04-24T15:21:26;37.47;;;15.87;;
70414;SDS011;57837;52.064;113.478;2023-04-24T15:24:29;43.70;;;16.25;;
70414;SDS011;57837;52.064;113.478;2023-04-24T15:27:40;39.03;;;17.23;;
70414;SDS011;57837;52.064;113.478;2023-04-24T15:30:47;53.55;;;21.55;;
70414;SDS011;57837;52.064;113.478;2023-04-24T15:33:50;62.10;;;23.30;;
70414;SDS011;57837;52.064;113.478;2023-04-24T15:36:54;60.63;;;24.13;;
70414;SDS011;57837;52.064;113.478;2023-04-24T15:39:58;54.58;;;21.00;;
70414;SDS011;57837;52.064;113.478;2023-04-24T15:43:02;53.10;;;18.90;;
70414;SDS011;57837;52.064;113.478;2023-04-24T15:46:06;45.78;;;17.63;;
70414;SDS011;57837;52.064;113.478;2023-04-24T15:49:11;47.95;;;15.55;;
70414;SDS011;57837;52.064;113.478;2023-04-24T15:52:14;35.77;;;13.63;;
70414;SDS011;57837;52.064;113.478;2023-04-24T15:55:18;37.28;;;13.07;;
70414;SDS011;57837;52.064;113.478;2023-04-24T15:58:22;55.92;;;22.25;;
70414;SDS011;57837;52.064;113.478;2023-04-24T16:01:25;177.95;;;60.60;;
70414;SDS011;57837;52.064;113.478;2023-04-24T16:04:29;195.03;;;70.97;;
70414;SDS011;57837;52.064;113.478;2023-04-24T16:07:33;179.23;;;62.60;;
70414;SDS011;57837;52.064;113.478;2023-04-24T16:10:38;202.18;;;72.78;;
70414;SDS011;57837;52.064;113.478;2023-04-24T16:13:41;190.50;;;70.97;;
70414;SDS011;57837;52.064;113.478;2023-04-24T16:16:46;160.90;;;59.63;;
70414;SDS011;57837;52.064;113.478;2023-04-24T16:19:49;152.00;;;55.40;;
70414;SDS011;57837;52.064;113.478;2023-04-24T16:22:53;137.73;;;51.63;;
70414;SDS011;57837;52.064;113.478;2023-04-24T16:25:57;132.32;;;50.60;;
70414;SDS011;57837;52.064;113.478;2023-04-24T16:29:01;131.48;;;47.88;;
70414;SDS011;57837;52.064;113.478;2023-04-24T16:32:05;180.27;;;58.08;;
70414;SDS011;57837;52.064;113.478;2023-04-24T16:35:08;158.75;;;55.92;;
70414;SDS011;57837;52.064;113.478;2023-04-24T16:38:12;155.27;;;56.28;;
70414;SDS011;57837;52.064;113.478;2023-04-24T16:41:16;143.93;;;51.58;;
70414;SDS011;57837;52.064;113.478;2023-04-24T16:44:20;139.87;;;49.53;;
70414;SDS011;57837;52.064;113.478;2023-04-24T16:47:24;93.15;;;32.47;;
70414;SDS011;57837;52.064;113.478;2023-04-24T16:50:28;74.00;;;27.23;;
70414;SDS011;57837;52.064;113.478;2023-04-24T16:53:32;74.45;;;25.05;;
70414;SDS011;57837;52.064;113.478;2023-04-24T16:56:35;59.85;;;23.95;;
70414;SDS011;57837;52.064;113.478;2023-04-24T16:59:39;85.20;;;30.90;;
70414;SDS011;57837;52.064;113.478;2023-04-24T17:02:43;92.65;;;34.20;;
70414;SDS011;57837;52.064;113.478;2023-04-24T17:05:50;97.18;;;33.03;;
70414;SDS011;57837;52.064;113.478;2023-04-24T17:08:54;87.18;;;34.30;;
70414;SDS011;57837;52.064;113.478;2023-04-24T17:11:58;109.83;;;37.87;;
70414;SDS011;57837;52.064;113.478;2023-04-24T17:15:01;107.03;;;38.80;;
70414;SDS011;57837;52.064;113.478;2023-04-24T17:18:05;82.60;;;30.45;;
70414;SDS011;57837;52.064;113.478;2023-04-24T17:21:09;73.05;;;26.90;;
70414;SDS011;57837;52.064;113.478;2023-04-24T17:24:13;59.30;;;23.00;;
70414;SDS011;57837;52.064;113.478;2023-04-24T17:27:17;51.58;;;18.77;;
70414;SDS011;57837;52.064;113.478;2023-04-24T17:30:21;51.70;;;18.70;;
70414;SDS011;57837;52.064;113.478;2023-04-24T17:33:25;45.22;;;18.48;;
70414;SDS011;57837;52.064;113.478;2023-04-24T17:36:30;46.50;;;17.30;;
70414;SDS011;57837;52.064;113.478;2023-04-24T17:39:34;44.10;;;16.67;;
70414;SDS011;57837;52.064;113.478;2023-04-24T17:42:38;39.67;;;15.82;;
70414;SDS011;57837;52.064;113.478;2023-04-24T17:45:46;42.53;;;15.45;;
70414;SDS011;57837;52.064;113.478;2023-04-24T17:48:50;40.63;;;14.93;;
70414;SDS011;57837;52.064;113.478;2023-04-24T17:51:54;37.55;;;13.45;;
70414;SDS011;57837;52.064;113.478;2023-04-24T17:54:57;37.75;;;14.07;;